createdAt,value
2023-01-19T00:00:59.301Z,40.10
2023-01-19T00:03:26.747Z,40.13
2023-01-19T00:05:53.858Z,39.98
2023-01-19T00:08:20.962Z,40.07
2023-01-19T00:10:50.357Z,40.01
2023-01-19T00:13:17.566Z,40.07
2023-01-19T00:15:45.456Z,40.00
2023-01-19T00:18:12.560Z,40.01
2023-01-19T00:20:40.343Z,40.01
2023-01-19T00:23:07.731Z,40.07
2023-01-19T00:25:35.075Z,39.98
2023-01-19T00:28:03.618Z,39.99
2023-01-19T00:30:30.739Z,40.06
2023-01-19T00:32:58.363Z,40.00
2023-01-19T00:35:26.040Z,40.03
2023-01-19T00:37:53.161Z,39.99
2023-01-19T00:40:20.216Z,40.08
2023-01-19T00:42:47.291Z,40.24
2023-01-19T00:45:17.458Z,40.34
2023-01-19T00:47:45.366Z,40.18
2023-01-19T00:50:13.914Z,40.12
2023-01-19T00:52:41.242Z,40.21
2023-01-19T00:55:09.928Z,40.22
2023-01-19T00:57:37.120Z,40.02
2023-01-19T01:00:05.927Z,40.08
2023-01-19T01:02:34.566Z,40.06
2023-01-19T01:05:01.734Z,39.97
2023-01-19T01:07:29.958Z,40.12
2023-01-19T01:09:57.049Z,40.00
2023-01-19T01:12:24.264Z,40.06
2023-01-19T01:14:51.380Z,39.93
2023-01-19T01:17:18.702Z,40.02
2023-01-19T01:19:47.345Z,40.01
2023-01-19T01:22:14.435Z,39.91
2023-01-19T01:24:41.522Z,39.93
2023-01-19T01:27:08.771Z,39.94
2023-01-19T01:29:35.879Z,39.87
2023-01-19T01:32:02.952Z,40.11
2023-01-19T01:34:30.125Z,40.14
2023-01-19T01:36:58.621Z,40.18
2023-01-19T01:39:25.826Z,40.25
2023-01-19T01:41:52.882Z,40.20
2023-01-19T01:44:46.511Z,40.12
2023-01-19T01:47:14.068Z,40.07
2023-01-19T01:49:41.434Z,40.08
2023-01-19T01:52:10.943Z,39.97
2023-01-19T01:54:38.085Z,39.82
2023-01-19T01:57:08.804Z,39.96
2023-01-19T01:59:39.001Z,39.95
2023-01-19T02:02:10.164Z,39.89
2023-01-19T02:04:38.471Z,39.91
2023-01-19T02:07:05.744Z,39.99
2023-01-19T02:09:36.883Z,39.90
2023-01-19T02:12:04.878Z,39.82
2023-01-19T02:14:32.115Z,39.92
2023-01-19T02:16:59.283Z,39.97
2023-01-19T02:19:31.007Z,39.94
2023-01-19T02:22:04.156Z,39.82
2023-01-19T02:24:32.710Z,39.88
2023-01-19T02:27:00.247Z,40.10
2023-01-19T02:29:28.718Z,39.98
2023-01-19T02:31:56.007Z,40.07
2023-01-19T02:34:23.259Z,40.24
2023-01-19T02:36:53.804Z,40.06
2023-01-19T02:39:27.024Z,40.01
2023-01-19T02:42:00.368Z,39.68
2023-01-19T02:44:29.705Z,39.01
2023-01-19T02:46:57.001Z,38.31
2023-01-19T02:49:27.827Z,37.90
2023-01-19T02:51:55.007Z,37.82
2023-01-19T02:54:43.885Z,37.51
2023-01-19T02:57:29.079Z,37.49
2023-01-19T03:00:13.081Z,37.51
2023-01-19T03:02:54.365Z,37.52
2023-01-19T03:05:32.949Z,37.70
2023-01-19T03:08:11.858Z,37.83
2023-01-19T03:10:47.471Z,37.94
2023-01-19T03:13:24.401Z,38.04
2023-01-19T03:15:57.078Z,37.96
2023-01-19T03:18:27.689Z,38.17
2023-01-19T03:20:59.703Z,38.23
2023-01-19T03:23:31.326Z,38.52
2023-01-19T03:26:01.436Z,38.48
2023-01-19T03:28:30.759Z,38.48
2023-01-19T03:31:01.824Z,38.52
2023-01-19T03:33:32.839Z,38.70
2023-01-19T03:36:04.927Z,38.94
2023-01-19T03:38:37.358Z,38.86
2023-01-19T03:41:09.479Z,38.84
2023-01-19T03:43:40.086Z,38.76
2023-01-19T03:46:08.586Z,38.94
2023-01-19T03:48:35.775Z,38.79
2023-01-19T03:51:04.665Z,39.11
2023-01-19T03:53:31.760Z,38.78
2023-01-19T03:55:59.070Z,38.80
2023-01-19T03:58:26.151Z,38.83
2023-01-19T04:00:54.684Z,38.83
2023-01-19T04:03:21.839Z,38.44
2023-01-19T04:05:48.888Z,38.22
2023-01-19T04:08:15.970Z,38.05
2023-01-19T04:10:43.115Z,38.00
2023-01-19T04:13:10.209Z,37.67
2023-01-19T04:15:37.313Z,37.89
2023-01-19T04:18:06.118Z,38.01
2023-01-19T04:20:33.252Z,38.14
2023-01-19T04:23:01.933Z,38.23
2023-01-19T04:25:29.508Z,38.30
2023-01-19T04:27:56.781Z,38.31
2023-01-19T04:30:24.545Z,38.42
2023-01-19T04:32:51.621Z,38.42
2023-01-19T04:35:20.008Z,38.60
2023-01-19T04:37:47.072Z,38.66
2023-01-19T04:40:14.398Z,38.49
2023-01-19T04:42:43.231Z,38.61
2023-01-19T04:45:11.330Z,38.70
2023-01-19T04:47:38.609Z,38.71
2023-01-19T04:50:07.322Z,38.83
2023-01-19T04:52:36.273Z,38.84
2023-01-19T04:55:04.259Z,38.79
2023-01-19T04:57:31.748Z,38.88
2023-01-19T04:59:59.176Z,38.90
2023-01-19T05:02:26.281Z,38.66
2023-01-19T05:04:53.473Z,38.63
2023-01-19T05:07:20.561Z,40.22
2023-01-19T05:09:48.996Z,40.27
2023-01-19T05:12:16.286Z,41.27
2023-01-19T05:14:43.397Z,40.35
2023-01-19T05:17:10.560Z,40.10
2023-01-19T05:19:37.776Z,40.04
2023-01-19T05:22:05.849Z,39.98
2023-01-19T05:24:33.061Z,39.70
2023-01-19T05:27:01.682Z,39.54
2023-01-19T05:29:28.744Z,39.20
2023-01-19T05:31:55.841Z,39.24
2023-01-19T05:34:22.945Z,39.21
2023-01-19T05:36:50.007Z,39.41
2023-01-19T05:39:17.219Z,39.40
2023-01-19T05:41:44.309Z,39.32
2023-01-19T05:44:12.882Z,39.43
2023-01-19T05:46:40.467Z,39.42
2023-01-19T05:49:07.887Z,39.50
2023-01-19T05:51:35.787Z,39.48
2023-01-19T05:54:02.913Z,39.42
2023-01-19T05:56:30.025Z,39.50
2023-01-19T05:58:57.121Z,39.55
2023-01-19T06:01:26.179Z,39.54
2023-01-19T06:03:53.262Z,39.64
2023-01-19T06:06:20.460Z,39.67
2023-01-19T06:08:47.685Z,39.81
2023-01-19T06:11:14.825Z,39.76
2023-01-19T06:13:42.271Z,39.69
2023-01-19T06:16:10.023Z,39.76
2023-01-19T06:18:38.924Z,39.51
2023-01-19T06:21:07.341Z,39.70
2023-01-19T06:23:36.227Z,39.73
2023-01-19T06:26:03.895Z,39.62
2023-01-19T06:28:31.033Z,39.46
2023-01-19T06:30:58.232Z,39.63
2023-01-19T06:33:25.985Z,39.62
2023-01-19T06:35:54.923Z,39.60
2023-01-19T06:38:22.217Z,39.69
2023-01-19T06:40:52.899Z,39.64
2023-01-19T06:43:20.444Z,39.64
2023-01-19T06:45:48.054Z,39.50
2023-01-19T06:48:15.164Z,39.55
2023-01-19T06:50:45.010Z,39.56
2023-01-19T06:53:13.934Z,39.49
2023-01-19T06:55:41.289Z,39.74
2023-01-19T06:58:08.941Z,39.69
2023-01-19T07:00:36.046Z,39.78
2023-01-19T07:03:03.516Z,39.77
2023-01-19T07:05:30.847Z,39.81
2023-01-19T07:07:58.046Z,39.81
2023-01-19T07:10:26.660Z,39.72
2023-01-19T07:13:13.785Z,39.62
2023-01-19T07:15:41.502Z,39.61
2023-01-19T07:18:08.769Z,39.61
2023-01-19T07:20:36.380Z,39.62
2023-01-19T07:23:04.055Z,39.52
2023-01-19T07:25:32.474Z,39.41
2023-01-19T07:28:00.267Z,39.48
2023-01-19T07:30:28.244Z,39.37
2023-01-19T07:32:56.084Z,39.49
2023-01-19T07:35:23.398Z,39.61
2023-01-19T07:37:50.808Z,39.49
2023-01-19T07:40:18.089Z,39.47
2023-01-19T07:42:50.417Z,39.45
2023-01-19T07:45:18.514Z,39.43
2023-01-19T07:47:46.026Z,39.55
2023-01-19T07:50:13.148Z,39.53
2023-01-19T07:52:40.581Z,39.52
2023-01-19T07:55:08.991Z,39.46
2023-01-19T07:57:36.372Z,39.45
2023-01-19T08:00:05.928Z,39.59
2023-01-19T08:02:33.040Z,39.44
2023-01-19T08:05:00.151Z,39.61
2023-01-19T08:07:27.412Z,39.35
2023-01-19T08:09:54.501Z,39.25
2023-01-19T08:12:21.589Z,39.32
2023-01-19T08:14:48.671Z,39.35
2023-01-19T08:17:17.108Z,39.37
2023-01-19T08:19:44.204Z,39.33
2023-01-19T08:22:11.263Z,39.23
2023-01-19T08:24:38.417Z,39.20
2023-01-19T08:27:06.096Z,39.30
2023-01-19T08:29:33.172Z,39.29
2023-01-19T08:32:00.352Z,39.20
2023-01-19T08:34:29.131Z,39.15
2023-01-19T08:36:56.280Z,39.29
2023-01-19T08:39:23.346Z,39.22
2023-01-19T08:41:51.182Z,39.19
2023-01-19T08:44:18.491Z,39.29
2023-01-19T08:46:45.630Z,39.37
2023-01-19T08:49:12.894Z,39.30
2023-01-19T08:51:41.346Z,39.31
2023-01-19T08:54:08.502Z,39.42
2023-01-19T08:56:35.606Z,39.24
2023-01-19T08:59:09.780Z,39.23
2023-01-19T09:01:37.767Z,39.03
2023-01-19T09:04:05.463Z,39.03
2023-01-19T09:06:32.603Z,39.52
2023-01-19T09:09:01.262Z,39.30
2023-01-19T09:11:28.450Z,39.15
2023-01-19T09:13:55.535Z,39.13
2023-01-19T09:16:22.666Z,39.19
2023-01-19T09:18:49.754Z,39.16
2023-01-19T09:21:16.851Z,39.28
2023-01-19T09:23:43.979Z,39.20
2023-01-19T09:26:12.470Z,39.15
2023-01-19T09:28:39.554Z,39.15
2023-01-19T09:31:07.815Z,39.04
2023-01-19T09:33:35.063Z,39.08
2023-01-19T09:36:02.166Z,38.96
2023-01-19T09:38:29.362Z,39.14
2023-01-19T09:40:56.840Z,39.19
2023-01-19T09:43:34.860Z,39.05
2023-01-19T09:46:03.753Z,39.12
2023-01-19T09:48:42.156Z,39.08
2023-01-19T09:51:15.465Z,39.14
2023-01-19T09:53:52.391Z,39.16
2023-01-19T09:56:20.516Z,39.00
2023-01-19T09:58:50.277Z,39.00
2023-01-19T10:01:37.918Z,39.09
2023-01-19T10:04:34.208Z,38.96
2023-01-19T10:07:18.567Z,38.93
2023-01-19T10:10:11.243Z,39.06
2023-01-19T10:12:48.801Z,38.86
2023-01-19T10:15:29.228Z,38.98
2023-01-19T10:18:11.923Z,38.89
2023-01-19T10:20:43.387Z,38.85
2023-01-19T10:23:24.209Z,38.88
2023-01-19T10:25:52.088Z,38.74
2023-01-19T10:28:25.429Z,38.59
2023-01-19T10:30:55.185Z,38.86
2023-01-19T10:33:22.372Z,38.95
2023-01-19T10:35:49.751Z,38.97
2023-01-19T10:38:17.865Z,38.98
2023-01-19T10:40:52.161Z,39.01
2023-01-19T10:43:37.641Z,38.94
2023-01-19T10:46:20.500Z,38.90
2023-01-19T10:48:50.053Z,38.80
2023-01-19T10:51:17.568Z,38.73
2023-01-19T10:53:57.110Z,38.71
2023-01-19T10:56:27.580Z,38.58
2023-01-19T10:58:54.667Z,38.81
2023-01-19T11:01:25.167Z,38.66
2023-01-19T11:03:53.540Z,38.64
2023-01-19T11:06:23.593Z,38.56
2023-01-19T11:08:53.053Z,38.66
2023-01-19T11:11:21.843Z,38.67
2023-01-19T11:14:04.887Z,38.61
2023-01-19T11:16:35.101Z,38.61
2023-01-19T11:19:02.509Z,38.69
2023-01-19T11:21:31.910Z,38.51
2023-01-19T11:24:02.185Z,38.82
2023-01-19T11:26:32.845Z,38.76
2023-01-19T11:29:02.149Z,38.87
2023-01-19T11:31:35.741Z,38.72
2023-01-19T11:34:04.445Z,38.80
2023-01-19T11:36:33.625Z,38.66
2023-01-19T11:39:19.206Z,38.66
2023-01-19T11:41:50.713Z,38.52
2023-01-19T11:44:21.863Z,38.52
2023-01-19T11:46:54.591Z,38.56
2023-01-19T11:49:29.780Z,38.63
2023-01-19T11:52:06.546Z,38.73
2023-01-19T11:54:40.039Z,38.74
2023-01-19T11:57:13.569Z,38.54
2023-01-19T11:59:40.890Z,38.62
2023-01-19T12:02:21.644Z,38.52
2023-01-19T12:04:50.535Z,38.76
2023-01-19T12:07:24.338Z,38.60
2023-01-19T12:09:54.032Z,38.59
2023-01-19T12:12:28.725Z,38.50
2023-01-19T12:15:02.305Z,38.56
2023-01-19T12:17:35.120Z,38.74
2023-01-19T12:20:13.669Z,38.57
2023-01-19T12:22:45.573Z,38.56
2023-01-19T12:25:20.919Z,38.71
2023-01-19T12:27:49.447Z,38.53
2023-01-19T12:30:20.377Z,38.50
2023-01-19T12:32:49.009Z,38.51
2023-01-19T12:35:53.319Z,38.41
2023-01-19T12:38:32.277Z,38.46
2023-01-19T12:41:18.531Z,38.37
2023-01-19T12:43:46.232Z,38.31
2023-01-19T12:46:24.283Z,38.37
2023-01-19T12:48:53.384Z,38.37
2023-01-19T12:51:24.197Z,38.48
2023-01-19T12:53:53.131Z,38.49
2023-01-19T12:56:27.434Z,38.51
2023-01-19T12:58:54.436Z,38.41
2023-01-19T13:01:21.548Z,38.38
2023-01-19T13:04:02.397Z,38.43
2023-01-19T13:07:07.879Z,38.32
2023-01-19T13:09:37.697Z,38.58
2023-01-19T13:12:21.380Z,38.39
2023-01-19T13:14:48.775Z,38.59
2023-01-19T13:17:24.508Z,38.56
2023-01-19T13:20:00.685Z,38.43
2023-01-19T13:23:09.414Z,38.45
2023-01-19T13:25:36.637Z,38.34
2023-01-19T13:28:10.053Z,38.46
2023-01-19T13:30:46.541Z,38.37
2023-01-19T13:33:19.720Z,38.28
2023-01-19T13:35:54.437Z,38.34
2023-01-19T13:38:23.599Z,38.35
2023-01-19T13:40:51.709Z,38.46
2023-01-19T13:43:25.299Z,38.04
2023-01-19T13:45:53.621Z,38.15
2023-01-19T13:48:22.745Z,38.31
2023-01-19T13:51:02.852Z,38.14
2023-01-19T13:53:30.164Z,38.22
2023-01-19T13:56:08.557Z,38.29
2023-01-19T13:58:35.685Z,38.22
2023-01-19T14:01:02.797Z,38.29
2023-01-19T14:03:30.135Z,38.32
2023-01-19T14:05:57.316Z,38.42
2023-01-19T14:08:25.838Z,38.41
2023-01-19T14:11:02.881Z,38.34
2023-01-19T14:13:31.900Z,38.47
2023-01-19T14:16:04.119Z,38.38
2023-01-19T14:18:32.743Z,38.25
2023-01-19T14:21:01.950Z,38.13
2023-01-19T14:23:42.409Z,38.28
2023-01-19T14:26:44.288Z,38.24
2023-01-19T14:29:26.019Z,38.27
2023-01-19T14:32:05.944Z,38.13
2023-01-19T14:34:35.873Z,38.10
2023-01-19T14:37:04.727Z,38.27
2023-01-19T14:39:34.917Z,38.03
2023-01-19T14:42:04.863Z,38.05
2023-01-19T14:44:36.150Z,38.24
2023-01-19T14:47:03.970Z,38.15
2023-01-19T14:49:34.170Z,38.24
2023-01-19T14:52:03.496Z,38.16
2023-01-19T14:54:37.144Z,38.20
2023-01-19T14:57:04.597Z,38.23
2023-01-19T14:59:31.719Z,38.26
2023-01-19T15:01:58.980Z,38.20
2023-01-19T15:04:26.133Z,38.33
2023-01-19T15:06:55.204Z,38.25
2023-01-19T15:09:23.039Z,38.19
2023-01-19T15:11:52.507Z,38.06
2023-01-19T15:14:21.038Z,37.94
2023-01-19T15:16:48.900Z,37.89
2023-01-19T15:19:17.334Z,38.13
2023-01-19T15:21:44.847Z,38.02
2023-01-19T15:24:12.846Z,38.07
2023-01-19T15:26:42.074Z,38.17
2023-01-19T15:29:16.750Z,38.13
2023-01-19T15:31:43.865Z,38.21
2023-01-19T15:34:12.455Z,38.12
2023-01-19T15:36:39.748Z,38.05
2023-01-19T15:39:06.822Z,38.01
2023-01-19T15:41:34.779Z,38.05
2023-01-19T15:44:01.903Z,38.17
2023-01-19T15:46:30.300Z,38.18
2023-01-19T15:48:57.460Z,38.00
2023-01-19T15:51:26.093Z,38.21
2023-01-19T15:53:54.647Z,38.27
2023-01-19T15:56:23.709Z,38.22
2023-01-19T15:58:51.603Z,37.98
2023-01-19T16:01:20.506Z,37.99
2023-01-19T16:03:49.579Z,38.17
2023-01-19T16:06:18.110Z,38.07
2023-01-19T16:08:45.255Z,37.94
2023-01-19T16:11:14.165Z,37.95
2023-01-19T16:13:44.943Z,37.76
2023-01-19T16:16:15.050Z,38.04
2023-01-19T16:18:42.167Z,37.88
2023-01-19T16:21:10.878Z,37.96
2023-01-19T16:23:37.951Z,37.97
2023-01-19T16:26:07.287Z,37.94
2023-01-19T16:28:35.840Z,37.99
2023-01-19T16:31:03.511Z,37.97
2023-01-19T16:33:30.609Z,37.92
2023-01-19T16:35:57.700Z,37.97
2023-01-19T16:38:26.111Z,37.91
2023-01-19T16:40:53.185Z,38.01
2023-01-19T16:43:20.275Z,38.00
2023-01-19T16:45:58.872Z,38.03
2023-01-19T16:48:26.719Z,38.19
2023-01-19T16:51:04.657Z,38.07
2023-01-19T16:53:34.006Z,38.07
2023-01-19T16:56:04.570Z,38.05
2023-01-19T16:58:32.142Z,38.03
2023-01-19T17:00:59.429Z,37.94
2023-01-19T17:03:26.565Z,37.95
2023-01-19T17:05:53.668Z,37.80
2023-01-19T17:08:20.798Z,37.83
2023-01-19T17:10:49.402Z,37.94
2023-01-19T17:13:16.508Z,37.92
2023-01-19T17:15:43.618Z,37.85
2023-01-19T17:18:10.738Z,37.89
2023-01-19T17:20:37.865Z,38.01
2023-01-19T17:23:04.994Z,37.83
2023-01-19T17:25:32.061Z,37.94
2023-01-19T17:28:00.505Z,37.87
2023-01-19T17:30:27.707Z,37.83
2023-01-19T17:32:54.903Z,37.83
2023-01-19T17:35:21.978Z,37.98
2023-01-19T17:37:52.909Z,37.96
2023-01-19T17:40:20.255Z,38.04
2023-01-19T17:42:47.308Z,38.00
2023-01-19T17:45:15.813Z,37.99
2023-01-19T17:47:43.135Z,38.16
2023-01-19T17:50:11.241Z,38.04
2023-01-19T17:52:38.576Z,37.64
2023-01-19T17:55:06.522Z,37.11
2023-01-19T17:57:33.615Z,36.58
2023-01-19T18:00:01.061Z,36.02
2023-01-19T18:02:29.499Z,35.59
2023-01-19T18:04:56.627Z,35.45
2023-01-19T18:07:23.780Z,35.15
2023-01-19T18:09:50.921Z,35.09
2023-01-19T18:12:18.242Z,35.21
2023-01-19T18:14:45.400Z,35.24
2023-01-19T18:17:12.462Z,35.47
2023-01-19T18:19:40.940Z,35.49
2023-01-19T18:22:08.091Z,35.68
2023-01-19T18:24:35.407Z,35.66
2023-01-19T18:27:02.475Z,36.04
2023-01-19T18:29:29.628Z,36.09
2023-01-19T18:31:56.761Z,36.53
2023-01-19T18:34:23.881Z,36.65
2023-01-19T18:36:52.437Z,36.86
2023-01-19T18:39:19.756Z,36.89
2023-01-19T18:41:46.838Z,36.90
2023-01-19T18:44:13.928Z,37.04
2023-01-19T18:46:41.132Z,36.92
2023-01-19T18:49:08.260Z,36.90
2023-01-19T18:51:35.443Z,36.93
2023-01-19T18:54:04.111Z,36.99
2023-01-19T18:56:31.222Z,36.88
2023-01-19T18:58:58.326Z,37.15
2023-01-19T19:01:27.470Z,37.34
2023-01-19T19:03:55.701Z,37.26
2023-01-19T19:06:24.080Z,37.40
2023-01-19T19:08:52.051Z,37.41
2023-01-19T19:11:22.428Z,37.74
2023-01-19T19:13:52.511Z,37.70
2023-01-19T19:16:19.785Z,37.60
2023-01-19T19:18:47.280Z,37.64
2023-01-19T19:21:14.418Z,37.67
2023-01-19T19:23:41.591Z,37.82
2023-01-19T19:26:10.655Z,37.85
2023-01-19T19:28:40.445Z,37.77
2023-01-19T19:31:09.822Z,37.95
2023-01-19T19:33:38.389Z,38.25
2023-01-19T19:36:06.764Z,38.42
2023-01-19T19:38:34.311Z,38.53
2023-01-19T19:41:04.948Z,38.30
2023-01-19T19:43:32.735Z,38.17
2023-01-19T19:46:03.197Z,37.86
2023-01-19T19:48:30.460Z,37.86
2023-01-19T19:51:17.007Z,37.72
2023-01-19T19:53:45.682Z,38.01
2023-01-19T19:56:13.091Z,37.90
2023-01-19T19:58:41.556Z,37.83
2023-01-19T20:01:11.616Z,37.95
2023-01-19T20:03:39.483Z,37.96
2023-01-19T20:06:08.601Z,37.90
2023-01-19T20:08:36.357Z,37.93
2023-01-19T20:11:05.367Z,37.91
2023-01-19T20:13:32.816Z,38.00
2023-01-19T20:16:00.998Z,38.02
2023-01-19T20:18:29.854Z,38.05
2023-01-19T20:20:57.068Z,37.99
2023-01-19T20:23:24.289Z,37.96
2023-01-19T20:25:51.551Z,38.14
2023-01-19T20:28:19.783Z,38.01
2023-01-19T20:30:46.940Z,37.92
2023-01-19T20:33:14.072Z,38.01
2023-01-19T20:35:42.485Z,37.86
2023-01-19T20:38:09.568Z,37.79
2023-01-19T20:40:36.661Z,37.92
2023-01-19T20:43:03.762Z,37.79
2023-01-19T20:45:30.855Z,37.78
2023-01-19T20:47:57.986Z,37.90
2023-01-19T20:50:25.048Z,37.87
2023-01-19T20:52:53.440Z,37.87
2023-01-19T20:55:20.538Z,37.73
2023-01-19T20:57:47.627Z,37.75
2023-01-19T21:00:15.297Z,37.71
2023-01-19T21:02:42.579Z,37.82
2023-01-19T21:05:10.336Z,37.81
2023-01-19T21:07:37.635Z,37.83
2023-01-19T21:10:06.554Z,37.85
2023-01-19T21:12:33.619Z,37.96
2023-01-19T21:15:00.969Z,38.02
2023-01-19T21:17:28.087Z,38.16
2023-01-19T21:19:55.175Z,38.04
2023-01-19T21:22:22.250Z,37.89
2023-01-19T21:24:49.350Z,38.03
2023-01-19T21:27:17.744Z,37.90
2023-01-19T21:29:44.831Z,37.92
2023-01-19T21:32:11.915Z,37.93
2023-01-19T21:34:39.079Z,37.87
2023-01-19T21:37:06.156Z,37.89
2023-01-19T21:39:33.291Z,37.94
2023-01-19T21:42:00.564Z,37.97
2023-01-19T21:44:29.015Z,38.01
2023-01-19T21:46:56.099Z,37.92
2023-01-19T21:49:23.150Z,37.94
2023-01-19T21:51:50.291Z,37.97
2023-01-19T21:54:17.632Z,37.96
2023-01-19T21:56:44.877Z,37.97
2023-01-19T21:59:13.688Z,37.95
2023-01-19T22:01:44.496Z,37.93
2023-01-19T22:04:11.831Z,38.08
2023-01-19T22:06:39.361Z,38.24
2023-01-19T22:09:06.661Z,38.03
2023-01-19T22:11:33.771Z,38.12
2023-01-19T22:14:00.903Z,38.13
2023-01-19T22:16:29.211Z,38.14
2023-01-19T22:19:00.146Z,38.02
2023-01-19T22:21:29.292Z,38.00
2023-01-19T22:23:57.981Z,38.05
2023-01-19T22:26:25.584Z,38.08
2023-01-19T22:28:53.815Z,38.01
2023-01-19T22:31:21.039Z,37.99
2023-01-19T22:33:48.330Z,38.00
2023-01-19T22:36:19.076Z,38.01
2023-01-19T22:38:49.542Z,38.05
2023-01-19T22:41:19.273Z,37.95
2023-01-19T22:43:46.765Z,38.14
2023-01-19T22:46:17.572Z,38.11
2023-01-19T22:48:44.954Z,38.19
2023-01-19T22:51:12.053Z,38.03
2023-01-19T22:53:40.776Z,38.21
2023-01-19T22:56:12.331Z,38.17
2023-01-19T22:58:39.491Z,38.22
2023-01-19T23:01:07.655Z,38.34
2023-01-19T23:03:35.231Z,38.18
2023-01-19T23:06:03.704Z,38.24
2023-01-19T23:08:30.815Z,38.19
2023-01-19T23:10:59.317Z,38.15
2023-01-19T23:13:26.395Z,38.12
2023-01-19T23:15:53.566Z,38.05
2023-01-19T23:18:20.687Z,38.08
2023-01-19T23:20:47.809Z,38.05
2023-01-19T23:23:15.065Z,38.27
2023-01-19T23:25:42.147Z,38.11
2023-01-19T23:28:10.572Z,38.14
2023-01-19T23:30:37.842Z,38.19
2023-01-19T23:33:05.070Z,38.23
2023-01-19T23:35:34.571Z,38.10
2023-01-19T23:38:01.660Z,38.23
2023-01-19T23:40:28.753Z,38.23
2023-01-19T23:42:55.859Z,38.09
2023-01-19T23:45:24.333Z,38.24
2023-01-19T23:47:51.469Z,38.32
2023-01-19T23:50:18.591Z,38.24
2023-01-19T23:52:45.683Z,38.48
2023-01-19T23:55:13.171Z,38.29
2023-01-19T23:57:40.417Z,38.40
